AirNav   Bose ProFlight Series 2 Headset
 
 1036 users online  

2NH2 Westport Heliport
Litchfield, New Hampshire, USA

GOING TO LITCHFIELD?


FAA INFORMATION EFFECTIVE 02 JANUARY 2020

Location

FAA Identifier: 2NH2
Lat/Long: 42-51-17.5500N 071-28-25.4000W
42-51.292500N 071-28.423333W
42.8548750,-71.4737222
(estimated)
Elevation: 205 ft. / 62 m (estimated)
Variation: 16W (2000)
From city: 1 mile N of LITCHFIELD, NH
Time zone: UTC -5 (UTC -4 during Daylight Saving Time)
Zip code: 03052

Heliport Operations

Heliport use: Private use. Permission required prior to landing
Activation date: 06/2002
Control tower: no
ARTCC: BOSTON CENTER
FSS: BANGOR FLIGHT SERVICE STATION
Attendance: UNATNDD
Segmented circle: no

Heliport Communications

WX AWOS-3PT at ASH (5 nm S): 125.1 (603-578-0473)
WX ASOS at MHT (5 nm N): 119.55 (603-621-1766)
WX ASOS at LWM (17 nm SE): PHONE 978-687-8017

Nearby radio navigation aids

VOR radial/distance  VOR name  Freq  Var
MHTr275/4.7MANCHESTER VOR/DME114.4015W
LWMr307/18.0LAWRENCE VOR/DME112.5015W
CONr183/22.3CONCORD VOR/DME112.9015W
PSMr260/31.4PEASE VOR/DME116.5016W
GDMr068/31.7GARDNER VOR/DME110.6014W
EENr098/36.2KEENE VORTAC109.4014W
BOSr340/36.7BOSTON VOR/DME112.7016W

 
NDB name  Hdg/Dist  Freq  Var  ID
FITZY118/2.520915WMJ -- .---
ROLLINS248/35.826016WESG . ... --.

Heliport Services

Runway Information

Helipad H1

Dimensions: 100 x 50 ft. / 30 x 15 m
Surface: turf
Traffic pattern: leftleft

Heliport Ownership and Management from official FAA records

Ownership: Privately-owned
Owner: KURT WEST
315 CHARLES BANCROFT HIGHWAY
LITCHFIELD, NH 03052
Phone 603-424-5776
Manager: KURT WEST
315 CHARLES BANCROFT HIGHWAY
LITCHFIELD, NH 03052
Phone 603-424-5776

Additional Remarks

A52-H1 35 FT SLOPES 800 FT NE/SW & NW/SE.
FOR CD CTC BOSTON APCH AT 603-594-5551.

Instrument Procedures

There are no published instrument procedures at 2NH2.

Some nearby airports with instrument procedures:

KASH - Boire Field Airport (5 nm S)
KMHT - Manchester Airport (5 nm N)
KLWM - Lawrence Municipal Airport (17 nm SE)
KCON - Concord Municipal Airport (21 nm N)
KFIT - Fitchburg Municipal Airport (22 nm SW)
 
Loc | Ops | Rwys | IFR | FBO | Links
Com | Nav | Svcs | Stats | Notes
Area around 2NH2 (Westport Heliport)
 
Road maps at: MapQuest Bing Google
 
Aerial photo
No photo
 
Sectional chart

 
Airport distance calculator
Flying to Westport Heliport? Find the distance to fly.

From to 2NH2

Sunrise and sunset
Times for 26-Jan-2020
 Local
(UTC-5)
 Zulu
(UTC)
Morning civil twilight06:3711:37
Sunrise07:0812:08
Sunset16:4921:49
Evening civil twilight17:2022:20

Current date and time
Zulu (UTC)  27-Jan-2020 01:38:14
Local (UTC-5)  26-Jan-2020 20:38:14
 
METAR
KMHT 
5nm N 
270053Z 23004KT 10SM FEW050 03/M03 A2964 RMK AO2 SLP055 T00281033
KASH 
6nm S 
270056Z VRB03KT 10SM SCT044 02/M02 A2967 RMK AO2 SLP054 T00221017
KLWM 
17nm SE 
270054Z 23009KT 10SM CLR 03/M03 A2968 RMK AO2 SLP053 T00281028 $
TAF
KMHT 
5nm N 
261720Z 2618/2718 28010KT P6SM FEW030 FM270200 22003KT P6SM BKN100
NOTAMs
Click for the latest NOTAMs
NOTAMs are issued by the DoD/FAA and will open in a separate window not controlled by AirNav.

 

 
 

Would you like to see your business listed on this page?

 If your business provides an interesting product or service to pilots, flight crews, aircraft, or users of the Westport Heliport, you should consider listing it here.  To start the listing process, click on the button below
 
Add a business
 

Other Pages about Westport Heliport

Update a link
 
Copyright © AirNav, LLC. All rights reserved. Privacy Policy  Contact